Time;durP1;ratioP1;P1;durP2;ratioP2;P2;SDS_P1;SDS_P2;PMS_P1;PMS_P2;Temp;Humidity;BMP_temperature;BMP_pressure;BME280_temperature;BME280_humidity;BME280_pressure;Samples;Min_cycle;Max_cycle;Signal;HPM_P1;HPM_P2
2023/09/16 00:01:19;;;;;;;4.40;3.17;;;15.20;99.90;;;;;;5014052;28;20201;-62
2023/09/16 00:03:46;;;;;;;4.22;3.63;;;15.20;99.90;;;;;;5005651;28;20912;-62
2023/09/16 00:06:14;;;;;;;4.18;3.30;;;15.20;99.90;;;;;;5018609;28;20217;-62
2023/09/16 00:08:43;;;;;;;3.28;2.90;;;15.20;99.90;;;;;;5003265;28;20203;-62
2023/09/16 00:11:11;;;;;;;4.25;3.08;;;15.20;99.90;;;;;;5016459;28;20232;-61
2023/09/16 00:13:41;;;;;;;5.32;3.33;;;15.10;99.90;;;;;;4989039;28;20955;-62
2023/09/16 00:16:08;;;;;;;4.25;3.38;;;15.10;99.90;;;;;;5024728;28;20225;-62
2023/09/16 00:18:35;;;;;;;4.93;3.00;;;15.10;99.90;;;;;;5001443;28;20213;-62
2023/09/16 00:21:02;;;;;;;3.33;3.03;;;15.20;99.90;;;;;;5024489;28;20207;-61
2023/09/16 00:23:31;;;;;;;3.67;3.25;;;15.50;99.90;;;;;;5023245;28;20709;-62
2023/09/16 00:25:58;;;;;;;4.10;3.22;;;15.10;99.90;;;;;;5014671;28;20201;-62
2023/09/16 00:28:26;;;;;;;3.58;3.15;;;15.10;99.90;;;;;;4981745;28;20768;-62
2023/09/16 00:30:53;;;;;;;7.85;3.28;;;15.10;99.90;;;;;;5024101;28;20206;-61
2023/09/16 00:33:20;;;;;;;4.15;3.13;;;15.10;99.90;;;;;;5013250;28;20206;-62
2023/09/16 00:35:46;;;;;;;4.80;3.38;;;15.10;99.90;;;;;;5014904;28;20236;-62
2023/09/16 00:38:15;;;;;;;5.10;3.85;;;15.00;99.90;;;;;;5019026;28;20212;-61
2023/09/16 00:40:42;;;;;;;5.75;3.05;;;15.00;99.90;;;;;;5024067;28;20201;-62
2023/09/16 00:43:09;;;;;;;5.03;3.40;;;15.00;99.90;;;;;;5016266;28;20781;-62
2023/09/16 00:45:37;;;;;;;5.55;3.53;;;15.10;99.90;;;;;;4984987;28;20665;-62
2023/09/16 00:48:05;;;;;;;5.13;3.50;;;15.00;99.90;;;;;;5015555;28;20208;-62
2023/09/16 00:50:31;;;;;;;3.67;2.83;;;13.70;99.90;;;;;;5014986;28;20201;-62
2023/09/16 00:53:00;;;;;;;3.72;2.75;;;15.00;99.90;;;;;;5015777;28;20230;-62
2023/09/16 00:55:28;;;;;;;5.43;3.75;;;15.10;99.90;;;;;;5024730;28;20215;-61
2023/09/16 00:57:57;;;;;;;3.10;2.80;;;14.90;99.90;;;;;;5013581;28;20207;-62
2023/09/16 01:00:26;;;;;;;3.67;3.05;;;14.90;99.90;;;;;;4994847;28;20225;-62
2023/09/16 01:02:55;;;;;;;5.82;3.55;;;14.90;99.90;;;;;;5016978;28;20213;-62
2023/09/16 01:05:22;;;;;;;4.63;2.92;;;15.00;99.90;;;;;;5022794;28;20201;-62
2023/09/16 01:07:50;;;;;;;5.07;3.40;;;14.90;99.90;;;;;;5008789;28;22079;-62
2023/09/16 01:10:20;;;;;;;5.00;3.35;;;15.00;99.90;;;;;;5020715;28;20209;-62
2023/09/16 01:12:48;;;;;;;4.90;3.40;;;15.00;99.90;;;;;;5011667;28;20212;-62
2023/09/16 01:15:16;;;;;;;4.55;3.47;;;15.00;99.90;;;;;;4996554;28;20592;-62
2023/09/16 01:17:50;;;;;;;5.82;3.58;;;15.00;99.90;;;;;;5012348;28;20785;-62
2023/09/16 01:20:21;;;;;;;4.63;3.35;;;15.00;99.90;;;;;;5023519;28;20204;-61
2023/09/16 01:22:49;;;;;;;4.80;3.30;;;15.10;99.90;;;;;;5008945;28;20221;-62
2023/09/16 01:25:17;;;;;;;4.65;3.20;;;15.00;99.90;;;;;;5025745;28;20244;-62
2023/09/16 01:27:44;;;;;;;4.07;3.20;;;15.00;99.90;;;;;;5023831;28;20206;-62
2023/09/16 01:30:12;;;;;;;5.03;3.30;;;15.00;99.90;;;;;;4984339;28;20213;-62
2023/09/16 01:32:44;;;;;;;3.95;3.45;;;15.00;99.90;;;;;;5017284;28;20349;-62
2023/09/16 01:35:14;;;;;;;4.47;3.40;;;15.00;99.90;;;;;;5027516;28;20209;-62
2023/09/16 01:37:44;;;;;;;4.55;3.53;;;15.00;99.90;;;;;;5012518;28;20245;-63
2023/09/16 01:40:12;;;;;;;4.43;3.38;;;15.00;99.90;;;;;;5020924;28;20691;-62
2023/09/16 01:42:41;;;;;;;5.45;3.70;;;15.00;99.90;;;;;;5029629;28;20229;-62
2023/09/16 01:45:10;;;;;;;4.32;3.38;;;14.90;99.90;;;;;;5016818;28;20485;-62
2023/09/16 01:47:37;;;;;;;4.47;3.30;;;14.90;99.90;;;;;;4974157;28;20837;-62
2023/09/16 01:50:05;;;;;;;3.90;3.30;;;14.90;99.90;;;;;;5027658;28;20681;-62
2023/09/16 01:52:32;;;;;;;3.83;3.03;;;14.90;99.90;;;;;;5018117;28;20236;-62
2023/09/16 01:54:59;;;;;;;4.20;3.45;;;14.90;99.90;;;;;;5016353;28;22480;-62
2023/09/16 01:57:25;;;;;;;5.80;3.17;;;15.00;99.90;;;;;;5026477;28;20221;-62
2023/09/16 01:59:53;;;;;;;6.15;3.58;;;15.00;99.90;;;;;;5018937;28;21028;-62
2023/09/16 02:02:20;;;;;;;6.28;4.05;;;15.00;99.90;;;;;;4985562;28;20236;-62
2023/09/16 02:04:47;;;;;;;7.43;3.50;;;15.10;99.90;;;;;;5024898;28;20205;-62
2023/09/16 02:07:14;;;;;;;5.03;3.35;;;15.10;99.90;;;;;;5016061;28;20276;-62
2023/09/16 02:09:42;;;;;;;4.00;2.83;;;15.00;99.90;;;;;;5018406;28;20212;-62
2023/09/16 02:12:09;;;;;;;6.13;3.20;;;15.00;99.90;;;;;;5022837;28;20671;-61
2023/09/16 02:14:38;;;;;;;4.82;3.08;;;15.10;99.90;;;;;;5025882;28;20217;-62
2023/09/16 02:17:08;;;;;;;4.50;3.33;;;15.10;99.90;;;;;;4982091;28;20231;-62
2023/09/16 02:19:35;;;;;;;7.80;3.42;;;15.10;99.90;;;;;;5014419;28;20209;-62
2023/09/16 02:22:01;;;;;;;3.90;3.20;;;15.20;99.90;;;;;;5020034;28;20684;-62
2023/09/16 02:24:28;;;;;;;5.40;3.10;;;15.10;99.90;;;;;;5022500;28;20985;-62
2023/09/16 02:26:55;;;;;;;5.68;3.42;;;15.10;99.90;;;;;;5012835;28;20598;-62
2023/09/16 02:29:22;;;;;;;4.57;3.13;;;15.00;99.90;;;;;;5022767;28;20200;-62
2023/09/16 02:31:49;;;;;;;4.90;3.15;;;16.10;99.90;;;;;;4989049;28;20217;-62
2023/09/16 02:34:17;;;;;;;5.80;3.38;;;15.00;99.90;;;;;;5013395;28;20586;-62
2023/09/16 02:36:44;;;;;;;4.45;3.08;;;14.90;99.90;;;;;;5028483;28;20225;-61
2023/09/16 02:39:11;;;;;;;7.88;3.53;;;15.00;99.90;;;;;;4999214;28;20208;-62
2023/09/16 02:41:39;;;;;;;4.05;3.38;;;14.90;99.90;;;;;;5012331;28;20212;-61
2023/09/16 02:44:07;;;;;;;5.75;2.72;;;14.90;99.90;;;;;;5022011;28;20259;-62
2023/09/16 02:46:34;;;;;;;3.72;3.03;;;14.90;99.90;;;;;;4976688;28;20291;-62
2023/09/16 02:49:02;;;;;;;3.88;3.20;;;14.60;99.90;;;;;;5012237;28;20205;-62
2023/09/16 02:51:31;;;;;;;4.32;2.90;;;14.90;99.90;;;;;;5021909;28;20650;-62
2023/09/16 02:53:57;;;;;;;3.80;3.28;;;14.90;99.90;;;;;;5011382;28;20209;-64
2023/09/16 02:56:24;;;;;;;7.13;3.28;;;14.80;99.90;;;;;;5018615;28;20236;-62
2023/09/16 02:58:52;;;;;;;5.25;3.58;;;14.80;99.90;;;;;;5017197;28;20336;-62
2023/09/16 03:01:19;;;;;;;4.18;3.50;;;14.70;99.90;;;;;;5014699;28;20205;-62
2023/09/16 03:03:46;;;;;;;5.65;3.58;;;14.10;99.90;;;;;;4991695;28;20218;-62
2023/09/16 03:06:13;;;;;;;3.90;3.03;;;14.70;99.90;;;;;;5014107;28;20209;-62
2023/09/16 03:08:41;;;;;;;3.72;3.13;;;14.50;99.90;;;;;;5009078;28;20207;-62
2023/09/16 03:11:08;;;;;;;4.30;3.40;;;14.60;99.90;;;;;;5024853;28;20201;-62
2023/09/16 03:13:35;;;;;;;4.43;3.63;;;14.60;99.90;;;;;;5011325;28;20221;-62
2023/09/16 03:16:16;;;;;;;6.38;3.90;;;14.50;99.90;;;;;;5009150;28;20674;-62
2023/09/16 03:18:46;;;;;;;4.72;3.35;;;14.30;99.90;;;;;;4983429;28;20209;-62
2023/09/16 03:21:14;;;;;;;4.50;3.65;;;14.60;99.90;;;;;;5012611;28;20205;-62
2023/09/16 03:23:43;;;;;;;6.80;4.32;;;14.50;99.90;;;;;;5004513;28;20206;-62
2023/09/16 03:26:11;;;;;;;6.93;3.90;;;14.50;99.90;;;;;;5022313;28;20207;-62
2023/09/16 03:28:44;;;;;;;5.28;3.85;;;14.40;99.90;;;;;;5014665;28;20247;-62
2023/09/16 03:31:11;;;;;;;4.55;3.78;;;14.40;99.90;;;;;;5010933;28;20194;-62
2023/09/16 03:33:39;;;;;;;5.63;3.45;;;14.40;99.90;;;;;;4982695;28;20263;-63
2023/09/16 03:36:06;;;;;;;3.42;3.13;;;14.40;99.90;;;;;;5011153;28;20206;-63
2023/09/16 03:38:34;;;;;;;9.57;4.00;;;14.40;99.90;;;;;;5022527;28;20233;-62
2023/09/16 03:41:03;;;;;;;8.07;3.88;;;14.40;99.90;;;;;;5014008;28;20245;-62
2023/09/16 03:43:30;;;;;;;4.03;3.63;;;14.20;99.90;;;;;;5015351;28;20205;-62
2023/09/16 03:45:57;;;;;;;4.05;3.60;;;14.30;99.90;;;;;;5015308;28;20212;-62
2023/09/16 03:48:23;;;;;;;4.35;3.55;;;14.30;99.90;;;;;;5019899;28;20209;-62
2023/09/16 03:50:50;;;;;;;5.78;3.55;;;14.40;99.90;;;;;;4995339;28;20221;-62
2023/09/16 03:53:18;;;;;;;6.50;3.47;;;14.30;99.90;;;;;;5009510;28;20272;-62
2023/09/16 03:55:46;;;;;;;7.30;3.72;;;14.30;99.90;;;;;;5003934;28;20216;-62
2023/09/16 03:58:14;;;;;;;9.93;3.47;;;14.40;99.90;;;;;;5022725;28;20226;-62
2023/09/16 04:00:41;;;;;;;6.82;3.70;;;14.30;99.90;;;;;;5005565;28;20975;-62
2023/09/16 04:03:08;;;;;;;6.72;3.42;;;14.30;99.90;;;;;;5026159;28;20852;-62
2023/09/16 04:05:35;;;;;;;3.60;3.10;;;14.30;99.90;;;;;;4985917;28;20229;-62
2023/09/16 04:08:01;;;;;;;5.85;3.55;;;14.30;99.90;;;;;;5013429;28;20205;-63
2023/09/16 04:10:28;;;;;;;5.00;3.40;;;14.20;99.90;;;;;;5016738;28;20244;-62
2023/09/16 04:12:55;;;;;;;4.38;3.67;;;14.10;99.90;;;;;;5021851;28;20213;-62
2023/09/16 04:15:23;;;;;;;4.13;3.72;;;14.10;99.90;;;;;;5009652;28;20206;-62
2023/09/16 04:17:51;;;;;;;6.38;3.30;;;14.20;99.90;;;;;;5014820;28;20237;-64
2023/09/16 04:20:19;;;;;;;4.55;3.58;;;14.20;99.90;;;;;;5014598;28;20201;-64
2023/09/16 04:22:45;;;;;;;7.93;3.45;;;14.20;99.90;;;;;;4987002;28;20582;-62
2023/09/16 04:25:12;;;;;;;5.88;3.58;;;14.20;99.90;;;;;;5026665;28;20202;-62
2023/09/16 04:27:39;;;;;;;4.50;3.67;;;14.20;99.90;;;;;;5017602;28;20209;-62
2023/09/16 04:30:08;;;;;;;5.25;3.47;;;14.20;99.90;;;;;;5014055;28;20232;-62
2023/09/16 04:32:36;;;;;;;5.43;3.85;;;14.10;99.90;;;;;;5017873;28;22390;-64
2023/09/16 04:35:03;;;;;;;5.53;3.30;;;14.10;99.90;;;;;;5012715;28;21005;-64
2023/09/16 04:37:30;;;;;;;5.40;3.50;;;14.10;99.90;;;;;;4997165;28;20225;-64
2023/09/16 04:39:57;;;;;;;5.47;3.78;;;13.80;99.90;;;;;;5015115;28;20205;-64
2023/09/16 04:42:29;;;;;;;6.43;3.60;;;14.10;99.90;;;;;;5017779;28;20201;-64
2023/09/16 04:44:56;;;;;;;5.90;3.75;;;14.10;99.90;;;;;;5019014;28;20208;-64
2023/09/16 04:47:22;;;;;;;6.20;3.50;;;14.10;99.90;;;;;;5009928;28;20217;-64
2023/09/16 04:49:51;;;;;;;7.05;3.80;;;15.60;99.90;;;;;;5017718;28;20193;-64
2023/09/16 04:52:18;;;;;;;3.92;3.20;;;14.10;99.90;;;;;;4993549;28;20240;-64
2023/09/16 04:54:45;;;;;;;6.43;4.00;;;13.60;99.90;;;;;;5014183;28;20209;-64
2023/09/16 04:57:13;;;;;;;7.20;3.70;;;14.00;99.90;;;;;;5021624;28;20236;-64
2023/09/16 04:59:40;;;;;;;5.63;3.88;;;14.10;99.90;;;;;;5014390;28;20745;-64
2023/09/16 05:02:07;;;;;;;4.25;3.55;;;14.10;99.90;;;;;;5018178;28;20684;-64
2023/09/16 05:04:33;;;;;;;3.72;3.33;;;14.10;99.90;;;;;;5025498;28;20631;-64
2023/09/16 05:07:04;;;;;;;4.30;3.20;;;14.40;99.90;;;;;;4985517;28;20209;-64
2023/09/16 05:09:31;;;;;;;5.57;3.97;;;14.00;99.90;;;;;;5026334;28;20204;-64
2023/09/16 05:11:58;;;;;;;7.50;4.05;;;14.00;99.90;;;;;;5013335;28;20862;-64
2023/09/16 05:14:25;;;;;;;4.47;4.00;;;14.00;99.90;;;;;;5015390;28;20221;-64
2023/09/16 05:16:52;;;;;;;5.15;4.03;;;14.00;99.90;;;;;;5018121;28;20202;-62
2023/09/16 05:19:19;;;;;;;6.18;3.50;;;14.00;99.90;;;;;;5017143;28;20227;-62
2023/09/16 05:21:46;;;;;;;4.80;3.83;;;14.00;99.90;;;;;;4995197;28;20204;-62
2023/09/16 05:24:14;;;;;;;5.80;4.18;;;14.00;99.90;;;;;;5014438;28;20205;-62
2023/09/16 05:26:41;;;;;;;9.48;3.85;;;14.00;99.90;;;;;;5012457;28;20223;-61
2023/09/16 05:29:07;;;;;;;10.82;4.00;;;14.10;99.90;;;;;;5021128;28;20212;-61
2023/09/16 05:31:34;;;;;;;3.95;3.47;;;14.00;99.90;;;;;;5017780;28;20209;-62
2023/09/16 05:34:01;;;;;;;5.97;4.07;;;14.00;99.90;;;;;;5015271;28;20202;-62
2023/09/16 05:36:28;;;;;;;5.40;3.95;;;14.00;99.90;;;;;;5016715;28;20206;-62
2023/09/16 05:38:54;;;;;;;6.57;3.88;;;14.00;99.90;;;;;;4991902;28;20229;-61
2023/09/16 05:41:23;;;;;;;5.50;3.70;;;13.90;99.90;;;;;;5017220;28;20256;-62
2023/09/16 05:43:49;;;;;;;5.53;3.63;;;13.90;99.90;;;;;;5025099;28;20202;-62
2023/09/16 05:46:16;;;;;;;5.43;3.67;;;13.90;99.90;;;;;;5015551;28;20217;-62
2023/09/16 05:48:44;;;;;;;7.38;4.13;;;14.00;99.90;;;;;;5022747;28;20618;-62
2023/09/16 05:51:11;;;;;;;8.52;4.20;;;14.00;99.90;;;;;;5022471;28;20846;-61
2023/09/16 05:53:39;;;;;;;6.50;4.30;;;;;;;;;;5007737;28;20197;-62
2023/09/16 05:56:08;;;;;;;4.22;3.83;;;14.00;99.90;;;;;;4999769;28;23344;-61
2023/09/16 05:58:36;;;;;;;4.63;3.83;;;14.10;99.90;;;;;;5026239;28;20248;-61
2023/09/16 06:01:03;;;;;;;8.52;4.30;;;14.30;99.90;;;;;;5010414;28;21374;-62
2023/09/16 06:03:30;;;;;;;4.07;3.67;;;14.20;99.90;;;;;;5025215;28;20551;-62
2023/09/16 06:05:58;;;;;;;5.45;3.90;;;14.20;99.90;;;;;;4997708;28;20222;-62
2023/09/16 06:08:25;;;;;;;4.75;4.00;;;14.30;99.90;;;;;;5007377;28;20221;-63
2023/09/16 06:10:52;;;;;;;9.02;4.53;;;14.30;99.90;;;;;;4985190;28;20252;-63
2023/09/16 06:13:18;;;;;;;7.55;4.15;;;14.30;99.90;;;;;;5013866;28;20201;-63
2023/09/16 06:15:46;;;;;;;5.25;4.28;;;14.40;99.90;;;;;;5027229;28;20202;-63
2023/09/16 06:18:13;;;;;;;5.30;3.80;;;14.40;99.90;;;;;;5013805;28;20812;-63
2023/09/16 06:20:40;;;;;;;5.13;4.30;;;14.50;99.90;;;;;;5004186;28;21364;-63
2023/09/16 06:23:07;;;;;;;4.53;3.85;;;14.50;99.90;;;;;;5018211;28;20225;-63
2023/09/16 06:25:34;;;;;;;4.70;4.20;;;14.90;99.90;;;;;;4983129;28;20220;-63
2023/09/16 06:28:03;;;;;;;6.03;4.53;;;14.60;99.90;;;;;;5013365;28;20201;-63
2023/09/16 06:30:30;;;;;;;5.55;3.83;;;14.70;99.90;;;;;;5021829;28;20702;-63
2023/09/16 06:32:59;;;;;;;5.40;4.50;;;14.70;99.90;;;;;;5018260;28;20213;-63
2023/09/16 06:35:26;;;;;;;5.95;4.38;;;14.80;99.90;;;;;;5007546;28;20225;-63
2023/09/16 06:37:53;;;;;;;6.75;4.38;;;14.80;99.90;;;;;;5023307;28;20232;-63
2023/09/16 06:40:20;;;;;;;4.15;3.67;;;14.70;99.90;;;;;;4992504;28;20252;-63
2023/09/16 06:42:47;;;;;;;6.32;3.95;;;12.40;99.90;;;;;;4996496;28;20237;-64
2023/09/16 06:45:14;;;;;;;7.22;5.00;;;14.60;99.90;;;;;;5026084;28;20194;-63
2023/09/16 06:47:40;;;;;;;7.75;4.63;;;14.50;99.90;;;;;;5012018;28;21006;-63
2023/09/16 06:50:09;;;;;;;6.82;3.70;;;14.60;99.90;;;;;;5028741;28;20197;-63
2023/09/16 06:52:36;;;;;;;5.28;4.18;;;14.50;99.90;;;;;;5011175;28;20674;-63
2023/09/16 06:55:04;;;;;;;6.70;4.40;;;14.60;99.90;;;;;;5023406;28;20212;-63
2023/09/16 06:57:31;;;;;;;5.25;4.40;;;14.60;99.90;;;;;;4975667;28;20233;-63
2023/09/16 06:59:57;;;;;;;5.47;4.05;;;14.60;99.90;;;;;;5013425;28;20662;-63
2023/09/16 07:02:24;;;;;;;5.88;3.85;;;14.60;99.90;;;;;;4984402;28;20244;-63
2023/09/16 07:04:51;;;;;;;8.63;4.05;;;14.60;99.90;;;;;;5012380;28;20228;-63
2023/09/16 07:07:23;;;;;;;8.15;4.65;;;14.80;99.90;;;;;;4996748;28;20225;-63
2023/09/16 07:09:50;;;;;;;6.05;4.45;;;14.80;99.90;;;;;;5001388;28;20342;-63
2023/09/16 07:12:17;;;;;;;4.22;3.78;;;14.90;99.90;;;;;;4991381;28;20213;-63
2023/09/16 07:14:44;;;;;;;8.32;4.35;;;15.00;99.90;;;;;;5008726;28;20206;-63
2023/09/16 07:17:11;;;;;;;6.18;4.15;;;15.00;99.90;;;;;;4996252;28;20240;-62
2023/09/16 07:19:43;;;;;;;5.13;4.50;;;15.00;99.90;;;;;;4990606;28;20245;-63
2023/09/16 07:22:10;;;;;;;7.03;4.80;;;15.00;99.90;;;;;;4991195;28;20217;-63
2023/09/16 07:24:39;;;;;;;6.40;4.80;;;15.10;99.90;;;;;;5010752;28;20213;-63
2023/09/16 07:27:05;;;;;;;5.22;4.22;;;15.10;99.90;;;;;;4980666;28;20214;-63
2023/09/16 07:29:32;;;;;;;6.28;4.55;;;15.20;99.90;;;;;;5011632;28;20205;-63
2023/09/16 07:31:59;;;;;;;5.85;4.80;;;15.20;99.90;;;;;;5013161;28;20205;-63
2023/09/16 07:34:26;;;;;;;6.35;4.68;;;15.30;99.90;;;;;;4992263;28;20225;-63
2023/09/16 07:36:53;;;;;;;4.93;4.40;;;15.40;99.90;;;;;;5023255;28;21033;-63
2023/09/16 07:39:20;;;;;;;5.10;4.30;;;15.70;99.90;;;;;;5003088;28;20229;-63
2023/09/16 07:41:48;;;;;;;5.18;4.40;;;15.40;99.90;;;;;;5013300;28;20654;-64
2023/09/16 07:44:15;;;;;;;5.88;4.70;;;15.40;99.90;;;;;;4994619;28;20225;-63
2023/09/16 07:46:42;;;;;;;6.47;4.70;;;16.80;99.90;;;;;;5006580;28;20870;-63
2023/09/16 07:49:09;;;;;;;5.13;4.55;;;15.50;99.90;;;;;;4993276;28;20736;-63
2023/09/16 07:51:39;;;;;;;6.00;4.68;;;15.50;99.90;;;;;;5017439;28;20259;-64
2023/09/16 07:54:06;;;;;;;4.95;4.30;;;15.60;99.90;;;;;;4987443;28;20276;-63
2023/09/16 07:56:33;;;;;;;6.28;4.82;;;15.70;99.90;;;;;;5006052;28;20221;-63
2023/09/16 07:59:01;;;;;;;4.45;4.05;;;15.70;99.90;;;;;;4983677;28;20699;-63
2023/09/16 08:01:29;;;;;;;9.25;5.00;;;15.70;99.90;;;;;;4997102;28;20319;-63
2023/09/16 08:03:56;;;;;;;5.70;4.65;;;15.70;99.90;;;;;;4998223;28;20611;-63
2023/09/16 08:06:23;;;;;;;5.30;4.38;;;;;;;;;;5008746;28;20204;-63
2023/09/16 08:08:50;;;;;;;6.07;4.30;;;15.80;99.90;;;;;;5014352;28;20769;-63
2023/09/16 08:11:17;;;;;;;7.25;4.18;;;15.80;99.90;;;;;;5008439;28;20201;-63
2023/09/16 08:13:44;;;;;;;6.13;4.13;;;15.80;99.90;;;;;;4967517;28;20793;-63
2023/09/16 08:16:12;;;;;;;4.78;4.18;;;15.90;99.90;;;;;;4987386;28;21077;-63
2023/09/16 08:18:40;;;;;;;11.85;4.93;;;16.10;99.90;;;;;;5014588;28;20390;-63
2023/09/16 08:21:06;;;;;;;5.30;4.18;;;15.90;99.90;;;;;;4990638;28;20575;-64
2023/09/16 08:23:34;;;;;;;6.88;4.57;;;16.00;99.90;;;;;;5001988;28;20328;-63
2023/09/16 08:26:01;;;;;;;6.00;4.32;;;16.00;99.90;;;;;;5011663;28;20250;-63
2023/09/16 08:28:27;;;;;;;6.07;4.50;;;16.10;99.90;;;;;;5007882;28;20271;-63
2023/09/16 08:30:54;;;;;;;5.50;3.90;;;16.10;99.90;;;;;;4966282;28;20310;-63
2023/09/16 08:33:22;;;;;;;4.60;4.20;;;16.20;99.90;;;;;;4992664;28;20805;-64
2023/09/16 08:35:49;;;;;;;5.32;4.00;;;16.20;99.90;;;;;;5002983;28;20229;-64
2023/09/16 08:38:16;;;;;;;6.50;4.03;;;16.20;99.90;;;;;;4997305;28;20229;-64
2023/09/16 08:40:43;;;;;;;5.07;4.45;;;16.30;99.90;;;;;;5009039;28;20220;-64
2023/09/16 08:43:16;;;;;;;10.80;4.10;;;16.30;99.90;;;;;;4988770;28;20250;-64
2023/09/16 08:45:47;;;;;;;5.15;4.20;;;16.30;99.90;;;;;;4983310;28;20237;-65
2023/09/16 08:48:17;;;;;;;6.43;4.22;;;16.30;99.90;;;;;;5004253;28;20206;-64
2023/09/16 08:50:47;;;;;;;4.35;3.95;;;16.40;99.90;;;;;;4985669;28;20201;-64
2023/09/16 08:53:16;;;;;;;5.28;4.35;;;16.50;99.90;;;;;;5004567;28;22689;-64
2023/09/16 08:55:44;;;;;;;5.85;4.38;;;16.50;99.90;;;;;;5022658;28;20198;-64
2023/09/16 08:58:14;;;;;;;4.97;3.83;;;16.50;99.90;;;;;;4993547;28;20248;-64
2023/09/16 09:00:41;;;;;;;7.05;4.30;;;16.90;99.90;;;;;;4990563;28;20209;-64
2023/09/16 09:03:08;;;;;;;5.45;3.92;;;16.50;99.90;;;;;;5006861;28;20796;-64
2023/09/16 09:05:37;;;;;;;9.48;4.45;;;16.60;99.90;;;;;;5017020;28;20559;-64
2023/09/16 09:08:08;;;;;;;5.85;4.32;;;16.60;99.90;;;;;;5013494;28;20229;-64
2023/09/16 09:10:36;;;;;;;8.35;4.10;;;16.60;99.90;;;;;;4998516;28;20233;-64
2023/09/16 09:13:06;;;;;;;4.93;4.20;;;16.60;99.90;;;;;;5004834;28;20216;-64
2023/09/16 09:15:34;;;;;;;6.72;4.20;;;16.80;99.90;;;;;;4995728;28;20237;-65
2023/09/16 09:18:03;;;;;;;4.95;4.15;;;16.80;99.90;;;;;;4996508;28;20225;-64
2023/09/16 09:20:30;;;;;;;8.75;4.47;;;16.80;99.90;;;;;;5014627;28;20334;-64
2023/09/16 09:22:58;;;;;;;10.25;4.25;;;16.80;99.90;;;;;;4992618;28;20348;-64
2023/09/16 09:25:27;;;;;;;7.45;4.70;;;16.90;99.90;;;;;;4998807;28;20598;-64
2023/09/16 09:27:56;;;;;;;6.35;4.38;;;16.90;99.90;;;;;;5005513;28;20397;-62
2023/09/16 09:30:26;;;;;;;5.22;4.38;;;16.90;99.90;;;;;;5005966;28;20327;-62
2023/09/16 09:32:55;;;;;;;5.40;4.50;;;16.90;99.90;;;;;;4983999;28;20225;-62
2023/09/16 09:35:23;;;;;;;4.75;4.18;;;16.90;99.90;;;;;;4995906;28;20796;-62
2023/09/16 09:37:50;;;;;;;4.57;4.07;;;17.00;99.90;;;;;;5009144;28;20689;-62
2023/09/16 09:40:17;;;;;;;5.95;4.18;;;17.00;99.90;;;;;;5014632;28;20233;-62
2023/09/16 09:42:46;;;;;;;5.30;4.25;;;17.10;99.90;;;;;;5011541;28;20351;-62
2023/09/16 09:45:14;;;;;;;5.47;4.10;;;17.00;99.90;;;;;;4998162;28;20766;-62
2023/09/16 09:47:42;;;;;;;5.95;4.55;;;17.10;99.90;;;;;;4981217;28;20231;-62
2023/09/16 09:50:12;;;;;;;5.43;4.82;;;17.10;99.90;;;;;;5011044;28;20679;-62
2023/09/16 09:52:39;;;;;;;7.63;4.60;;;17.10;99.90;;;;;;5010206;28;20237;-62
2023/09/16 09:55:07;;;;;;;5.88;4.60;;;17.20;99.90;;;;;;5013243;28;20227;-62
2023/09/16 09:57:34;;;;;;;6.93;4.50;;;17.20;99.90;;;;;;5011304;28;20672;-62
2023/09/16 10:00:02;;;;;;;6.40;4.20;;;17.40;99.90;;;;;;5008331;28;20573;-62
2023/09/16 10:02:30;;;;;;;4.82;4.22;;;17.30;99.90;;;;;;4998704;28;20310;-62
2023/09/16 10:05:01;;;;;;;9.75;4.78;;;17.50;99.90;;;;;;4996699;28;20286;-62
2023/09/16 10:07:29;;;;;;;6.65;4.50;;;17.50;99.90;;;;;;5007425;28;20242;-62
2023/09/16 10:09:56;;;;;;;5.03;4.50;;;17.50;99.90;;;;;;5000110;28;20248;-62
2023/09/16 10:12:23;;;;;;;5.97;4.57;;;17.60;99.90;;;;;;5008107;28;20951;-62
2023/09/16 10:14:51;;;;;;;4.43;3.88;;;17.60;99.90;;;;;;5004107;28;20363;-62
2023/09/16 10:17:19;;;;;;;7.97;4.40;;;17.70;99.90;;;;;;5011961;28;20262;-65
2023/09/16 10:19:46;;;;;;;5.45;4.13;;;17.90;99.90;;;;;;4963450;22;20394;-64
2023/09/16 10:22:14;;;;;;;8.05;4.18;;;17.90;99.90;;;;;;4981529;28;20244;-65
2023/09/16 10:24:41;;;;;;;7.03;4.93;;;18.10;99.90;;;;;;4985037;28;20228;-62
2023/09/16 10:27:15;;;;;;;6.57;4.70;;;18.00;99.90;;;;;;5011569;28;20209;-62
2023/09/16 10:29:43;;;;;;;12.20;4.90;;;18.10;99.90;;;;;;5017199;28;20668;-62
2023/09/16 10:32:12;;;;;;;4.82;4.32;;;18.20;99.90;;;;;;5025472;22;20229;-64
2023/09/16 10:34:45;;;;;;;9.05;4.18;;;19.90;99.90;;;;;;5002237;28;20258;-65
2023/09/16 10:37:13;;;;;;;5.53;4.40;;;18.30;99.90;;;;;;5055843;28;20464;-65
2023/09/16 10:39:41;;;;;;;8.00;4.25;;;18.30;99.90;;;;;;5042450;28;20557;-65
2023/09/16 10:42:09;;;;;;;5.88;4.40;;;18.40;99.90;;;;;;5056244;28;20207;-66
2023/09/16 10:44:36;;;;;;;6.50;4.68;;;18.40;99.90;;;;;;5045425;27;20203;-65
2023/09/16 10:47:06;;;;;;;4.38;3.95;;;18.50;99.90;;;;;;5061741;27;20204;-64
2023/09/16 10:49:32;;;;;;;10.68;3.75;;;18.50;99.90;;;;;;5059711;27;20223;-65
2023/09/16 10:52:04;;;;;;;5.80;4.30;;;18.50;99.90;;;;;;5036712;28;20231;-65
2023/09/16 10:54:41;;;;;;;4.70;4.20;;;18.60;99.90;;;;;;5059428;28;20751;-65
2023/09/16 10:57:16;;;;;;;5.53;3.65;;;18.60;99.90;;;;;;5041072;28;20226;-62
2023/09/16 10:59:44;;;;;;;5.65;4.43;;;18.60;99.90;;;;;;5066821;27;20253;-65
2023/09/16 11:02:18;;;;;;;4.65;4.15;;;18.70;99.90;;;;;;5054959;27;20940;-65
2023/09/16 11:04:46;;;;;;;5.20;3.42;;;18.70;99.90;;;;;;5068710;27;20593;-65
2023/09/16 11:07:14;;;;;;;3.72;3.33;;;18.70;99.90;;;;;;5044835;28;20498;-65
2023/09/16 11:09:43;;;;;;;4.53;3.50;;;18.70;99.90;;;;;;5064313;28;20222;-65
2023/09/16 11:12:10;;;;;;;4.90;3.78;;;18.70;99.90;;;;;;5051072;28;20303;-65
2023/09/16 11:14:38;;;;;;;6.32;4.10;;;18.80;99.90;;;;;;5055526;28;20696;-64
2023/09/16 11:17:12;;;;;;;6.65;3.63;;;18.80;99.90;;;;;;5067706;28;20299;-65
2023/09/16 11:19:38;;;;;;;6.22;3.45;;;18.80;99.90;;;;;;5071453;28;20215;-65
2023/09/16 11:22:05;;;;;;;5.28;3.85;;;19.00;99.90;;;;;;5038512;28;20223;-65
2023/09/16 11:24:36;;;;;;;4.53;3.63;;;19.10;99.90;;;;;;5070840;28;20224;-65
2023/09/16 11:27:03;;;;;;;4.63;3.90;;;19.10;99.90;;;;;;5047434;28;20226;-65
2023/09/16 11:29:31;;;;;;;6.35;3.85;;;19.20;99.90;;;;;;5069314;28;20216;-65
2023/09/16 11:31:59;;;;;;;6.20;4.05;;;19.50;99.90;;;;;;5064849;28;20692;-65
2023/09/16 11:34:28;;;;;;;6.38;3.55;;;19.50;99.90;;;;;;5054529;28;20679;-65
2023/09/16 11:36:58;;;;;;;3.00;2.70;;;19.60;99.90;;;;;;5042674;28;20223;-65
2023/09/16 11:39:36;;;;;;;5.43;3.00;;;19.60;99.90;;;;;;5077762;27;20708;-65
2023/09/16 11:42:03;;;;;;;10.32;3.38;;;19.80;99.90;;;;;;5062575;28;20307;-65
2023/09/16 11:44:30;;;;;;;3.65;3.35;;;19.80;99.90;;;;;;5048516;28;20623;-65
2023/09/16 11:46:59;;;;;;;4.82;3.13;;;19.90;99.90;;;;;;5048964;28;20235;-65
2023/09/16 11:49:26;;;;;;;4.65;3.33;;;19.90;99.90;;;;;;5069770;28;20582;-65
2023/09/16 11:51:53;;;;;;;5.13;3.38;;;19.90;99.90;;;;;;5037418;28;20200;-65
2023/09/16 11:54:20;;;;;;;5.30;3.33;;;20.00;99.90;;;;;;5071139;28;20200;-65
2023/09/16 11:56:50;;;;;;;4.38;3.40;;;20.00;99.90;;;;;;5067702;28;20837;-65
2023/09/16 11:59:17;;;;;;;3.85;3.15;;;20.10;99.90;;;;;;5062604;28;20204;-65
2023/09/16 12:01:45;;;;;;;4.03;3.40;;;20.20;99.90;;;;;;5057026;28;20200;-65
2023/09/16 12:04:15;;;;;;;5.40;3.90;;;20.20;99.90;;;;;;5074139;27;20560;-65
2023/09/16 12:06:42;;;;;;;4.15;3.75;;;20.30;99.90;;;;;;5069073;28;20238;-65
2023/09/16 12:09:11;;;;;;;5.55;4.10;;;20.40;99.90;;;;;;5040887;28;20234;-65
2023/09/16 12:11:38;;;;;;;3.70;3.25;;;20.10;99.90;;;;;;5077900;28;21725;-65
2023/09/16 12:14:07;;;;;;;9.35;3.25;;;20.40;99.90;;;;;;5050144;28;20230;-65
2023/09/16 12:16:34;;;;;;;4.72;3.47;;;20.50;99.90;;;;;;5045530;28;20803;-65
2023/09/16 12:19:01;;;;;;;4.97;3.40;;;20.60;99.90;;;;;;5073697;28;20556;-65
2023/09/16 12:21:28;;;;;;;3.65;3.15;;;20.60;99.90;;;;;;5068289;28;20231;-65
2023/09/16 12:23:55;;;;;;;4.38;2.90;;;20.60;99.90;;;;;;5032464;28;20218;-65
2023/09/16 12:26:22;;;;;;;3.95;3.42;;;20.50;99.90;;;;;;5076935;28;20199;-65
2023/09/16 12:28:49;;;;;;;6.95;3.45;;;20.70;99.90;;;;;;5057229;28;20689;-65
2023/09/16 12:31:23;;;;;;;7.90;3.47;;;20.60;99.90;;;;;;5048099;28;20244;-65
2023/09/16 12:33:54;;;;;;;9.65;4.45;;;20.70;99.90;;;;;;5072396;28;20238;-65
2023/09/16 12:36:23;;;;;;;4.75;3.83;;;20.80;99.90;;;;;;5068516;28;20557;-65
2023/09/16 12:38:51;;;;;;;5.05;3.67;;;21.10;99.90;;;;;;5046391;28;20200;-65
2023/09/16 12:41:18;;;;;;;10.02;3.50;;;21.00;99.90;;;;;;5058095;28;25131;-65
2023/09/16 12:43:46;;;;;;;5.03;3.00;;;21.10;99.90;;;;;;5059809;28;20200;-65
2023/09/16 12:46:14;;;;;;;4.00;3.35;;;21.10;99.90;;;;;;5064925;27;20204;-65
2023/09/16 12:48:47;;;;;;;4.32;3.03;;;21.10;99.90;;;;;;5057330;27;20203;-65
2023/09/16 12:51:15;;;;;;;4.82;3.75;;;21.10;99.90;;;;;;5075043;27;20203;-65